createdAt,value
2023-04-19T00:01:29.500Z,12.08
2023-04-19T00:03:58.375Z,12.00
2023-04-19T00:06:30.485Z,12.09
2023-04-19T00:08:58.816Z,12.04
2023-04-19T00:11:27.133Z,12.08
2023-04-19T00:13:55.483Z,11.93
2023-04-19T00:16:25.454Z,11.91
2023-04-19T00:18:53.736Z,11.91
2023-04-19T00:21:22.054Z,11.82
2023-04-19T00:23:50.356Z,11.74
2023-04-19T00:26:18.612Z,11.68
2023-04-19T00:28:50.994Z,11.68
2023-04-19T00:31:19.320Z,11.62
2023-04-19T00:33:48.994Z,11.60
2023-04-19T00:36:17.297Z,11.53
2023-04-19T00:38:48.513Z,11.61
2023-04-19T00:41:17.879Z,11.61
2023-04-19T00:43:46.144Z,11.62
2023-04-19T00:46:16.106Z,11.59
2023-04-19T00:48:44.594Z,11.64
2023-04-19T00:51:15.310Z,11.65
2023-04-19T00:53:45.805Z,11.62
2023-04-19T00:56:15.742Z,11.62
2023-04-19T00:58:44.192Z,11.70
2023-04-19T01:01:12.507Z,11.69
2023-04-19T01:03:41.015Z,11.70
2023-04-19T01:06:09.564Z,11.71
2023-04-19T01:08:39.678Z,11.77
2023-04-19T01:11:08.443Z,11.80
2023-04-19T01:13:38.535Z,11.76
2023-04-19T01:16:08.543Z,11.72
2023-04-19T01:18:37.666Z,11.76
2023-04-19T01:21:07.065Z,11.68
2023-04-19T01:23:36.894Z,11.76
2023-04-19T01:26:05.448Z,11.81
2023-04-19T01:28:34.009Z,11.70
2023-04-19T01:31:02.358Z,11.72
2023-04-19T01:33:30.749Z,11.73
2023-04-19T01:35:59.085Z,11.63
2023-04-19T01:38:27.619Z,11.69
2023-04-19T01:40:57.352Z,11.67
2023-04-19T01:43:26.355Z,11.63
2023-04-19T01:45:54.627Z,11.67
2023-04-19T01:48:22.956Z,11.76
2023-04-19T01:50:51.232Z,11.79
2023-04-19T01:53:19.571Z,11.91
2023-04-19T01:55:47.910Z,11.85
2023-04-19T01:58:17.709Z,11.95
2023-04-19T02:00:46.594Z,11.91
2023-04-19T02:03:15.178Z,11.83
2023-04-19T02:05:44.353Z,11.81
2023-04-19T02:08:12.620Z,11.76
2023-04-19T02:10:40.991Z,11.75
2023-04-19T02:13:09.352Z,11.72
2023-04-19T02:15:39.914Z,11.62
2023-04-19T02:18:08.391Z,11.39
2023-04-19T02:20:36.747Z,11.55
2023-04-19T02:23:05.526Z,11.45
2023-04-19T02:25:35.410Z,11.34
2023-04-19T02:28:03.809Z,11.24
2023-04-19T02:30:32.132Z,11.25
2023-04-19T02:33:01.885Z,11.21
2023-04-19T02:35:30.296Z,11.23
2023-04-19T02:38:00.365Z,11.02
2023-04-19T02:40:28.741Z,11.07
2023-04-19T02:42:59.834Z,11.03
2023-04-19T02:45:28.161Z,10.93
2023-04-19T02:47:56.536Z,10.96
2023-04-19T02:50:28.301Z,11.07
2023-04-19T02:52:56.589Z,10.97
2023-04-19T02:55:26.553Z,10.98
2023-04-19T02:58:04.698Z,11.02
2023-04-19T03:00:35.779Z,10.81
2023-04-19T03:03:09.944Z,10.80
2023-04-19T03:05:39.831Z,10.88
2023-04-19T03:08:08.250Z,10.76
2023-04-19T03:10:36.720Z,10.85
2023-04-19T03:13:05.052Z,10.96
2023-04-19T03:15:33.428Z,10.99
2023-04-19T03:18:01.866Z,10.81
2023-04-19T03:20:31.068Z,10.86
2023-04-19T03:23:01.129Z,10.86
2023-04-19T03:25:29.935Z,10.99
2023-04-19T03:28:09.772Z,11.09
2023-04-19T03:30:58.082Z,11.04
2023-04-19T03:33:26.503Z,11.06
2023-04-19T03:35:55.619Z,11.17
2023-04-19T03:38:25.888Z,11.12
2023-04-19T03:40:56.063Z,11.08
2023-04-19T03:43:25.230Z,11.02
2023-04-19T03:45:53.590Z,11.05
2023-04-19T03:48:22.046Z,11.10
2023-04-19T03:50:50.400Z,11.19
2023-04-19T03:53:20.673Z,11.13
2023-04-19T03:55:50.375Z,11.17
2023-04-19T03:58:18.921Z,11.13
2023-04-19T04:00:54.085Z,11.11
2023-04-19T04:03:22.838Z,10.97
2023-04-19T04:05:51.385Z,10.92
2023-04-19T04:08:20.084Z,11.29
2023-04-19T04:10:49.749Z,11.28
2023-04-19T04:13:18.364Z,11.26
2023-04-19T04:15:52.473Z,11.09
2023-04-19T04:18:22.008Z,11.26
2023-04-19T04:20:51.275Z,11.46
2023-04-19T04:23:21.767Z,11.32
2023-04-19T04:26:01.008Z,11.36
2023-04-19T04:28:40.169Z,11.51
2023-04-19T04:31:09.909Z,11.33
2023-04-19T04:33:38.224Z,11.44
2023-04-19T04:36:12.031Z,11.46
2023-04-19T04:38:41.508Z,11.46
2023-04-19T04:41:12.883Z,11.48
2023-04-19T04:43:41.479Z,11.57
2023-04-19T04:46:10.674Z,11.65
2023-04-19T04:48:42.857Z,11.54
2023-04-19T04:51:11.224Z,11.31
2023-04-19T04:53:40.940Z,11.32
2023-04-19T04:56:11.691Z,11.28
2023-04-19T04:58:40.054Z,11.56
2023-04-19T05:01:11.165Z,11.70
2023-04-19T05:03:41.751Z,11.71
2023-04-19T05:06:14.978Z,11.73
2023-04-19T05:08:45.276Z,11.69
2023-04-19T05:11:23.412Z,11.69
2023-04-19T05:13:51.788Z,11.75
2023-04-19T05:16:20.269Z,11.78
2023-04-19T05:18:50.227Z,11.83
2023-04-19T05:21:18.626Z,11.92
2023-04-19T05:23:47.206Z,11.97
2023-04-19T05:26:16.300Z,11.95
2023-04-19T05:28:47.286Z,12.01
2023-04-19T05:31:23.258Z,12.06
2023-04-19T05:34:03.762Z,12.21
2023-04-19T05:36:32.267Z,12.17
2023-04-19T05:39:01.287Z,12.17
2023-04-19T05:41:29.713Z,12.46
2023-04-19T05:43:59.420Z,12.57
2023-04-19T05:46:28.291Z,12.57
2023-04-19T05:48:59.202Z,12.37
2023-04-19T05:51:30.489Z,12.58
2023-04-19T05:54:05.089Z,12.64
2023-04-19T05:56:33.578Z,12.68
2023-04-19T05:59:03.358Z,12.94
2023-04-19T06:01:32.101Z,12.99
2023-04-19T06:04:00.507Z,13.07
2023-04-19T06:06:29.504Z,13.19
2023-04-19T06:08:58.003Z,13.36
2023-04-19T06:11:35.152Z,13.40
2023-04-19T06:14:08.737Z,13.42
2023-04-19T06:16:37.496Z,13.51
2023-04-19T06:19:06.370Z,13.64
2023-04-19T06:21:34.793Z,13.62
2023-04-19T06:24:03.583Z,13.43
2023-04-19T06:26:31.935Z,13.50
2023-04-19T06:29:00.253Z,13.55
2023-04-19T06:31:30.206Z,13.67
2023-04-19T06:33:58.580Z,13.52
2023-04-19T06:36:26.934Z,13.48
2023-04-19T06:38:55.544Z,13.44
2023-04-19T06:41:24.079Z,13.34
2023-04-19T06:43:52.370Z,13.46
2023-04-19T06:46:20.792Z,13.36
2023-04-19T06:48:50.795Z,13.41
2023-04-19T06:51:19.187Z,13.17
2023-04-19T06:53:47.456Z,12.97
2023-04-19T06:56:15.835Z,12.85
2023-04-19T06:58:44.297Z,13.07
2023-04-19T07:01:13.153Z,13.32
2023-04-19T07:03:41.936Z,13.36
2023-04-19T07:06:11.684Z,13.37
2023-04-19T07:08:49.192Z,13.49
2023-04-19T07:11:19.779Z,13.67
2023-04-19T07:13:49.403Z,13.66
2023-04-19T07:16:17.738Z,13.88
2023-04-19T07:18:46.104Z,13.93
2023-04-19T07:21:16.312Z,13.79
2023-04-19T07:23:44.756Z,13.99
2023-04-19T07:26:14.960Z,13.94
2023-04-19T07:28:43.487Z,13.48
2023-04-19T07:31:17.264Z,14.16
2023-04-19T07:33:47.010Z,14.50
2023-04-19T07:36:16.776Z,14.62
2023-04-19T07:38:45.587Z,14.62
2023-04-19T07:41:14.000Z,14.61
2023-04-19T07:43:42.433Z,14.69
2023-04-19T07:46:12.087Z,14.10
2023-04-19T07:48:40.958Z,13.87
2023-04-19T07:51:13.753Z,13.69
2023-04-19T07:53:44.825Z,13.84
2023-04-19T07:56:14.355Z,14.12
2023-04-19T07:58:43.906Z,13.95
2023-04-19T08:01:12.948Z,13.97
2023-04-19T08:03:42.235Z,14.44
2023-04-19T08:06:10.764Z,14.32
2023-04-19T08:08:39.248Z,13.77
2023-04-19T08:11:08.833Z,14.21
2023-04-19T08:13:37.156Z,14.17
2023-04-19T08:18:37.251Z,14.58
2023-04-19T08:21:06.285Z,14.56
2023-04-19T08:23:47.360Z,14.77
2023-04-19T08:26:18.112Z,14.98
2023-04-19T08:28:46.477Z,15.19
2023-04-19T08:31:14.810Z,15.24
2023-04-19T08:33:43.841Z,15.32
2023-04-19T08:36:15.233Z,15.26
2023-04-19T08:38:51.833Z,15.35
2023-04-19T08:41:30.102Z,15.42
2023-04-19T08:44:00.196Z,15.19
2023-04-19T08:46:29.335Z,15.56
2023-04-19T08:48:58.382Z,15.38
2023-04-19T08:51:29.266Z,15.56
2023-04-19T08:53:57.870Z,15.19
2023-04-19T08:56:35.324Z,15.30
2023-04-19T09:01:41.559Z,15.71
2023-04-19T09:04:34.613Z,15.95
2023-04-19T09:07:00.604Z,16.05
2023-04-19T09:12:04.560Z,16.10
2023-04-19T09:14:32.957Z,16.26
2023-04-19T09:17:15.770Z,16.32
2023-04-19T09:19:48.146Z,16.32
2023-04-19T09:22:16.940Z,16.27
2023-04-19T09:27:27.271Z,16.43
2023-04-19T09:29:56.297Z,16.54
2023-04-19T09:32:25.467Z,16.82
2023-04-19T09:34:56.236Z,16.71
2023-04-19T09:37:41.416Z,16.21
2023-04-19T09:40:27.788Z,15.87
2023-04-19T09:45:30.874Z,16.32
2023-04-19T09:48:05.076Z,16.61
2023-04-19T09:50:38.863Z,16.78
2023-04-19T09:53:20.076Z,16.78
2023-04-19T09:55:59.710Z,16.93
2023-04-19T10:01:13.961Z,17.12
2023-04-19T10:03:47.039Z,16.90
2023-04-19T10:08:51.897Z,17.24
2023-04-19T10:11:22.991Z,17.18
2023-04-19T10:13:58.762Z,15.03
2023-04-19T10:16:28.051Z,16.11
2023-04-19T10:18:57.509Z,16.31
2023-04-19T10:21:28.593Z,16.58
2023-04-19T10:23:57.856Z,16.85
2023-04-19T10:26:26.434Z,17.00
2023-04-19T10:28:58.188Z,17.03
2023-04-19T10:31:28.018Z,16.80
2023-04-19T10:33:57.765Z,16.94
2023-04-19T10:36:29.879Z,16.66
2023-04-19T10:38:58.435Z,16.68
2023-04-19T10:41:58.545Z,16.60
2023-04-19T10:44:28.245Z,16.42
2023-04-19T10:46:56.593Z,16.49
2023-04-19T10:49:25.261Z,16.40
2023-04-19T10:51:54.922Z,16.32
2023-04-19T10:54:34.478Z,16.74
2023-04-19T10:57:05.521Z,16.64
2023-04-19T10:59:37.267Z,16.75
2023-04-19T11:02:28.266Z,16.77
2023-04-19T11:05:02.680Z,16.94
2023-04-19T11:07:39.988Z,17.02
2023-04-19T11:10:10.279Z,17.23
2023-04-19T11:12:38.924Z,17.30
2023-04-19T11:15:10.608Z,17.29
2023-04-19T11:17:39.679Z,16.94
2023-04-19T11:20:12.086Z,16.94
2023-04-19T11:22:42.053Z,16.16
2023-04-19T11:25:13.146Z,16.55
2023-04-19T11:27:43.128Z,15.86
2023-04-19T11:30:14.248Z,16.51
2023-04-19T11:32:50.870Z,16.34
2023-04-19T11:35:23.375Z,16.24
2023-04-19T11:37:52.783Z,16.16
2023-04-19T11:40:22.936Z,15.44
2023-04-19T11:42:56.816Z,15.43
2023-04-19T11:45:32.313Z,15.71
2023-04-19T11:48:03.654Z,14.92
2023-04-19T11:50:36.217Z,14.91
2023-04-19T11:53:16.520Z,15.69
2023-04-19T11:55:47.167Z,16.07
2023-04-19T11:58:26.739Z,16.21
2023-04-19T12:00:55.704Z,15.44
2023-04-19T12:03:26.469Z,15.43
2023-04-19T12:05:58.424Z,15.31
2023-04-19T12:08:35.180Z,15.21
2023-04-19T12:11:06.358Z,15.51
2023-04-19T12:13:36.393Z,16.03
2023-04-19T12:16:05.476Z,16.12
2023-04-19T12:18:49.841Z,16.46
2023-04-19T12:21:31.638Z,15.81
2023-04-19T12:24:01.719Z,16.14
2023-04-19T12:26:31.097Z,16.08
2023-04-19T12:29:02.585Z,16.14
2023-04-19T12:31:33.730Z,16.22
2023-04-19T12:34:02.228Z,16.72
2023-04-19T12:36:31.917Z,16.76
2023-04-19T12:39:00.447Z,16.84
2023-04-19T12:41:28.776Z,16.92
2023-04-19T12:43:57.096Z,16.89
2023-04-19T12:46:25.474Z,16.78
2023-04-19T12:48:53.926Z,16.89
2023-04-19T12:51:22.212Z,16.51
2023-04-19T12:53:53.578Z,16.62
2023-04-19T12:56:22.199Z,16.84
2023-04-19T12:58:50.547Z,16.59
2023-04-19T13:01:18.996Z,16.36
2023-04-19T13:03:47.644Z,16.14
2023-04-19T13:06:17.270Z,16.39
2023-04-19T13:08:47.737Z,15.77
2023-04-19T13:11:23.127Z,16.40
2023-04-19T13:13:53.544Z,16.66
2023-04-19T13:16:22.559Z,16.81
2023-04-19T13:18:52.661Z,16.93
2023-04-19T13:21:21.306Z,17.06
2023-04-19T13:23:49.613Z,16.47
2023-04-19T13:26:19.503Z,16.74
2023-04-19T13:28:47.845Z,16.90
2023-04-19T13:31:16.402Z,16.99
2023-04-19T13:33:44.880Z,16.70
2023-04-19T13:36:13.181Z,17.03
2023-04-19T13:38:41.572Z,17.07
2023-04-19T13:41:10.000Z,17.31
2023-04-19T13:43:39.921Z,17.11
2023-04-19T13:46:08.392Z,17.43
2023-04-19T13:48:36.940Z,17.02
2023-04-19T13:51:05.664Z,16.79
2023-04-19T13:53:34.068Z,16.77
2023-04-19T13:56:02.372Z,16.94
2023-04-19T13:58:30.792Z,16.89
2023-04-19T14:01:00.706Z,17.20
2023-04-19T14:03:29.233Z,17.33
2023-04-19T14:05:57.767Z,17.10
2023-04-19T14:08:26.262Z,17.13
2023-04-19T14:10:55.023Z,17.35
2023-04-19T14:13:23.379Z,17.21
2023-04-19T14:15:51.721Z,17.29
2023-04-19T14:18:21.568Z,17.31
2023-04-19T14:20:49.966Z,17.46
2023-04-19T14:23:18.291Z,17.44
2023-04-19T14:25:46.616Z,17.43
2023-04-19T14:28:14.969Z,17.45
2023-04-19T14:30:43.289Z,17.49
2023-04-19T14:33:13.334Z,17.55
2023-04-19T14:35:44.334Z,17.43
2023-04-19T14:38:12.796Z,17.43
2023-04-19T14:40:41.095Z,17.37
2023-04-19T14:43:09.402Z,17.29
2023-04-19T14:45:37.684Z,16.80
2023-04-19T14:48:06.814Z,16.76
2023-04-19T14:50:35.158Z,16.96
2023-04-19T14:53:04.937Z,16.96
2023-04-19T14:55:33.394Z,17.07
2023-04-19T14:58:01.713Z,16.99
2023-04-19T15:00:30.242Z,17.05
2023-04-19T15:02:58.697Z,17.35
2023-04-19T15:05:28.628Z,17.16
2023-04-19T15:07:57.265Z,16.69
2023-04-19T15:10:27.068Z,16.95
2023-04-19T15:12:56.585Z,17.01
2023-04-19T15:15:24.966Z,16.94
2023-04-19T15:17:53.379Z,17.17
2023-04-19T15:20:21.942Z,16.80
2023-04-19T15:22:50.307Z,17.07
2023-04-19T15:25:19.037Z,16.98
2023-04-19T15:27:49.647Z,17.17
2023-04-19T15:30:17.880Z,16.99
2023-04-19T15:32:46.280Z,17.03
2023-04-19T15:35:14.648Z,17.07
2023-04-19T15:37:43.865Z,17.20
2023-04-19T15:40:14.433Z,17.07
2023-04-19T15:42:42.804Z,16.99
2023-04-19T15:45:12.721Z,17.10
2023-04-19T15:47:41.153Z,16.86
2023-04-19T15:50:10.533Z,17.06
2023-04-19T15:52:38.884Z,17.07
2023-04-19T15:55:08.240Z,16.99
2023-04-19T15:57:36.950Z,17.05
2023-04-19T16:00:09.365Z,16.96
2023-04-19T16:02:42.263Z,17.16
2023-04-19T16:05:11.258Z,16.99
2023-04-19T16:07:39.501Z,16.89
2023-04-19T16:10:08.923Z,16.92
2023-04-19T16:12:37.299Z,16.95
2023-04-19T16:15:06.741Z,16.93
2023-04-19T16:17:35.182Z,17.13
2023-04-19T16:20:05.613Z,16.89
2023-04-19T16:22:34.065Z,16.94
2023-04-19T16:25:02.387Z,16.92
2023-04-19T16:27:31.279Z,16.89
2023-04-19T16:29:59.643Z,16.94
2023-04-19T16:32:28.092Z,16.87
2023-04-19T16:34:56.454Z,16.33
2023-04-19T16:37:26.194Z,16.70
2023-04-19T16:39:54.598Z,16.69
2023-04-19T16:42:22.923Z,16.74
2023-04-19T16:44:51.390Z,16.63
2023-04-19T16:47:19.639Z,16.71
2023-04-19T16:49:49.370Z,16.74
2023-04-19T16:52:18.063Z,16.66
2023-04-19T16:54:47.655Z,16.53
2023-04-19T16:57:16.238Z,16.58
2023-04-19T16:59:44.538Z,16.64
2023-04-19T17:02:13.070Z,16.58
2023-04-19T17:04:41.781Z,16.55
2023-04-19T17:07:10.904Z,16.43
2023-04-19T17:09:39.281Z,16.37
2023-04-19T17:12:09.410Z,16.20
2023-04-19T17:14:38.179Z,16.18
2023-04-19T17:17:07.027Z,16.33
2023-04-19T17:19:35.422Z,16.24
2023-04-19T17:22:05.426Z,16.24
2023-04-19T17:24:34.403Z,16.11
2023-04-19T17:27:02.862Z,16.06
2023-04-19T17:29:32.592Z,16.05
2023-04-19T17:32:01.800Z,15.95
2023-04-19T17:34:30.212Z,15.88
2023-04-19T17:36:59.444Z,15.74
2023-04-19T17:39:28.900Z,15.72
2023-04-19T17:41:57.519Z,15.72
2023-04-19T17:44:26.170Z,15.65
2023-04-19T17:46:55.926Z,15.60
2023-04-19T17:49:25.046Z,15.64
2023-04-19T17:51:53.358Z,15.57
2023-04-19T17:54:21.725Z,15.46
2023-04-19T17:56:50.274Z,15.47
2023-04-19T17:59:18.679Z,15.43
2023-04-19T18:01:47.223Z,15.24
2023-04-19T18:04:20.054Z,15.21
2023-04-19T18:06:48.676Z,15.22
2023-04-19T18:09:18.095Z,14.99
2023-04-19T18:11:47.679Z,15.12
2023-04-19T18:14:16.288Z,15.21
2023-04-19T18:16:44.903Z,15.11
2023-04-19T18:19:13.175Z,15.08
2023-04-19T18:21:43.055Z,15.05
2023-04-19T18:24:11.451Z,14.97
2023-04-19T18:26:41.377Z,14.88
2023-04-19T18:29:09.939Z,14.82
2023-04-19T18:31:38.366Z,14.88
2023-04-19T18:34:06.717Z,14.76
2023-04-19T18:36:35.150Z,14.78
2023-04-19T18:39:05.053Z,14.50
2023-04-19T18:41:33.596Z,14.67
2023-04-19T18:46:33.175Z,14.70
2023-04-19T18:49:01.672Z,14.62
2023-04-19T18:51:29.982Z,14.49
2023-04-19T18:53:58.331Z,14.54
2023-04-19T18:57:04.492Z,14.01
2023-04-19T18:59:16.863Z,14.37
2023-04-19T19:01:45.952Z,14.43
2023-04-19T19:04:43.059Z,14.34
2023-04-19T19:07:22.817Z,14.33
2023-04-19T19:10:01.347Z,14.24
2023-04-19T19:12:32.181Z,14.20
2023-04-19T19:15:00.605Z,14.23
2023-04-19T19:17:29.219Z,14.04
2023-04-19T19:19:57.603Z,13.98
2023-04-19T19:22:28.866Z,14.01
2023-04-19T19:24:57.697Z,13.95
2023-04-19T19:27:26.076Z,13.84
2023-04-19T19:29:55.986Z,13.91
2023-04-19T19:32:24.405Z,13.74
2023-04-19T19:34:56.541Z,13.84
2023-04-19T19:37:30.334Z,13.74
2023-04-19T19:40:03.666Z,13.72
2023-04-19T19:42:32.853Z,13.67
2023-04-19T19:45:03.701Z,13.68
2023-04-19T19:47:35.313Z,13.70
2023-04-19T19:50:46.657Z,13.73
2023-04-19T19:52:53.727Z,13.27
2023-04-19T19:55:22.113Z,13.61
2023-04-19T20:00:43.980Z,13.55
2023-04-19T20:03:12.849Z,13.46
2023-04-19T20:05:41.738Z,13.61
2023-04-19T20:08:12.620Z,13.54
2023-04-19T20:10:43.591Z,13.56
2023-04-19T20:13:12.972Z,13.49
2023-04-19T20:15:45.394Z,13.44
2023-04-19T20:18:14.585Z,13.47
2023-04-19T20:20:43.165Z,13.46
2023-04-19T20:23:11.524Z,13.41
2023-04-19T20:25:39.815Z,13.47
2023-04-19T20:28:09.399Z,12.67
2023-04-19T20:30:37.833Z,13.32
2023-04-19T20:33:07.669Z,13.20
2023-04-19T20:35:36.502Z,13.31
2023-04-19T20:38:07.730Z,13.34
2023-04-19T20:40:36.308Z,13.34
2023-04-19T20:43:04.653Z,13.27
2023-04-19T20:45:33.107Z,13.32
2023-04-19T20:48:04.838Z,13.42
2023-04-19T20:50:35.273Z,13.24
2023-04-19T20:53:03.846Z,13.29
2023-04-19T20:55:32.240Z,13.37
2023-04-19T20:58:00.704Z,13.33
2023-04-19T21:00:29.133Z,13.31
2023-04-19T21:02:57.665Z,13.20
2023-04-19T21:05:26.424Z,13.20
2023-04-19T21:07:56.273Z,12.96
2023-04-19T21:10:24.665Z,13.12
2023-04-19T21:12:52.968Z,13.09
2023-04-19T21:15:21.619Z,13.05
2023-04-19T21:17:49.995Z,12.95
2023-04-19T21:20:18.579Z,12.72
2023-04-19T21:22:47.874Z,12.64
2023-04-19T21:25:17.863Z,12.62
2023-04-19T21:27:46.306Z,12.67
2023-04-19T21:30:15.388Z,12.56
2023-04-19T21:32:43.848Z,12.57
2023-04-19T21:35:12.354Z,12.54
2023-04-19T21:37:40.711Z,12.53
2023-04-19T21:40:09.980Z,12.57
2023-04-19T21:42:39.665Z,12.60
2023-04-19T21:45:09.676Z,12.62
2023-04-19T21:47:38.025Z,12.59
2023-04-19T21:50:07.968Z,12.62
2023-04-19T21:52:36.392Z,12.58
2023-04-19T21:55:05.350Z,12.49
2023-04-19T21:57:33.862Z,12.50
2023-04-19T22:00:04.627Z,12.56
2023-04-19T22:02:35.494Z,12.49
2023-04-19T22:05:04.251Z,12.57
2023-04-19T22:07:32.544Z,12.49
2023-04-19T22:10:02.145Z,12.33
2023-04-19T22:12:30.931Z,12.28
2023-04-19T22:14:59.315Z,12.33
2023-04-19T22:17:29.565Z,12.37
2023-04-19T22:19:59.180Z,12.44
2023-04-19T22:22:27.656Z,12.43
2023-04-19T22:24:58.128Z,12.51
2023-04-19T22:27:26.592Z,12.40
2023-04-19T22:29:55.056Z,12.32
2023-04-19T22:32:23.608Z,12.36
2023-04-19T22:34:53.469Z,12.29
2023-04-19T22:37:21.809Z,12.19
2023-04-19T22:39:50.260Z,12.25
2023-04-19T22:42:18.669Z,12.22
2023-04-19T22:44:46.972Z,12.28
2023-04-19T22:47:15.646Z,12.31
2023-04-19T22:49:43.899Z,12.27
2023-04-19T22:52:14.630Z,12.28
2023-04-19T22:54:43.198Z,12.21
2023-04-19T22:57:11.928Z,12.25
2023-04-19T22:59:40.603Z,12.22
2023-04-19T23:02:09.059Z,12.14
2023-04-19T23:04:38.037Z,12.07
2023-04-19T23:07:07.004Z,12.03
2023-04-19T23:09:39.087Z,11.90
2023-04-19T23:12:08.497Z,11.70
2023-04-19T23:14:38.491Z,11.96
2023-04-19T23:17:07.361Z,11.86
2023-04-19T23:19:36.594Z,11.79
2023-04-19T23:22:04.997Z,11.83
2023-04-19T23:24:33.345Z,11.81
2023-04-19T23:27:03.428Z,11.77
2023-04-19T23:29:31.908Z,11.84
2023-04-19T23:32:01.576Z,11.74
2023-04-19T23:34:29.937Z,11.71
2023-04-19T23:36:58.321Z,11.70
2023-04-19T23:39:26.899Z,11.58
2023-04-19T23:41:55.219Z,11.64
2023-04-19T23:44:24.890Z,11.62
2023-04-19T23:46:53.282Z,11.73
2023-04-19T23:49:21.669Z,11.60
2023-04-19T23:51:50.403Z,11.62
2023-04-19T23:54:21.265Z,11.63
2023-04-19T23:56:50.664Z,11.62
2023-04-19T23:59:19.905Z,11.59
